Time;durP1;ratioP1;P1;durP2;ratioP2;P2;SDS_P1;SDS_P2;PMS_P1;PMS_P2;Temp;Humidity;BMP_temperature;BMP_pressure;BME280_temperature;BME280_humidity;BME280_pressure;Samples;Min_cycle;Max_cycle;Signal;HPM_P1;HPM_P2
2022/06/06 00:01:57;;;;;;;29.77;14.02;;;;;;;;;;5103406;27;20114;-76
2022/06/06 00:04:24;;;;;;;26.83;13.32;;;;;;;;;;5106240;27;20114;-73
2022/06/06 00:06:52;;;;;;;27.70;13.90;;;;;;;;;;5103374;28;20217;-74
2022/06/06 00:09:18;;;;;;;25.67;13.05;;;;;;;;;;5104464;27;20036;-74
2022/06/06 00:11:43;;;;;;;28.00;12.98;;;;;;;;;;5103981;28;20147;-73
2022/06/06 00:14:11;;;;;;;26.25;13.10;;;;;;;;;;5100961;28;20026;-76
2022/06/06 00:16:37;;;;;;;26.60;13.02;;;;;;;;;;5103008;27;20054;-74
2022/06/06 00:19:04;;;;;;;23.65;12.65;;;;;;;;;;5104346;27;20055;-75
2022/06/06 00:21:30;;;;;;;26.02;12.85;;;;;;;;;;5103360;27;20052;-76
2022/06/06 00:23:59;;;;;;;27.33;13.75;;;;;;;;;;5102621;27;20059;-74
2022/06/06 00:26:26;;;;;;;31.92;14.85;;;;;;;;;;5098660;27;20039;-75
2022/06/06 00:28:52;;;;;;;29.75;14.32;;;;;;;;;;5092503;27;20105;-75
2022/06/06 00:36:46;;;;;;;28.50;13.32;;;;;;;;;;5101331;27;20076;-73
2022/06/06 00:39:15;;;;;;;29.02;13.38;;;;;;;;;;5103205;28;20091;-76
2022/06/06 00:41:44;;;;;;;28.60;13.27;;;;;;;;;;5099344;27;20015;-76
2022/06/06 00:44:15;;;;;;;29.15;13.70;;;;;;;;;;5097860;27;20031;-75
2022/06/06 00:47:13;;;;;;;26.20;13.35;;;;;;;;;;5105324;27;20023;-76
2022/06/06 00:49:50;;;;;;;22.92;11.65;;;;;;;;;;5101156;28;20031;-76
2022/06/06 00:52:21;;;;;;;26.65;12.38;;;;;;;;;;5102354;27;20016;-75
2022/06/06 00:54:48;;;;;;;21.48;10.75;;;;;;;;;;5105420;27;20360;-73
2022/06/06 00:57:20;;;;;;;23.48;11.85;;;;;;;;;;5105685;27;20028;-76
2022/06/06 00:59:46;;;;;;;25.17;11.93;;;;;;;;;;5099575;27;20395;-73
2022/06/06 01:02:13;;;;;;;25.10;12.73;;;;;;;;;;5100685;27;20038;-76
2022/06/06 01:04:39;;;;;;;26.33;12.90;;;;;;;;;;5101460;28;20024;-76
2022/06/06 01:07:09;;;;;;;22.55;11.65;;;;;;;;;;5102116;27;20019;-73
2022/06/06 01:09:36;;;;;;;26.02;12.82;;;;;;;;;;5104010;28;20047;-75
2022/06/06 01:12:06;;;;;;;26.58;12.65;;;;;;;;;;5101142;27;20028;-76
2022/06/06 01:14:39;;;;;;;19.90;11.68;;;;;;;;;;5102208;27;20028;-75
2022/06/06 01:17:14;;;;;;;20.92;11.98;;;;;;;;;;5101946;28;20115;-74
2022/06/06 01:19:55;;;;;;;23.05;11.35;;;;;;;;;;5096853;27;20027;-76
2022/06/06 01:22:39;;;;;;;21.13;11.65;;;;;;;;;;5104381;28;20034;-74
2022/06/06 01:25:55;;;;;;;22.25;10.93;;;;;;;;;;5090079;27;20024;-75
2022/06/06 01:28:35;;;;;;;26.45;12.02;;;;;;;;;;5074052;27;20040;-76
2022/06/06 01:31:07;;;;;;;22.58;10.23;;;;;;;;;;5105117;27;20073;-75
2022/06/06 01:34:06;;;;;;;20.42;10.50;;;;;;;;;;5097116;28;20032;-75
2022/06/06 01:36:33;;;;;;;22.02;11.10;;;;;;;;;;5102001;28;20085;-74
2022/06/06 01:39:05;;;;;;;20.05;10.18;;;;;;;;;;5098520;27;20542;-73
2022/06/06 01:41:36;;;;;;;20.10;10.60;;;;;;;;;;5097573;27;20055;-76
2022/06/06 01:44:09;;;;;;;20.98;10.43;;;;;;;;;;5098623;28;20107;-75
2022/06/06 01:46:36;;;;;;;24.45;11.32;;;;;;;;;;5096652;28;20016;-76
2022/06/06 01:49:06;;;;;;;24.50;10.95;;;;;;;;;;5101270;27;20042;-76
2022/06/06 01:51:32;;;;;;;19.50;10.40;;;;;;;;;;5099271;27;20029;-73
2022/06/06 01:53:58;;;;;;;22.67;11.13;;;;;;;;;;5098812;28;20031;-75
2022/06/06 01:56:36;;;;;;;23.63;10.73;;;;;;;;;;5098881;27;20028;-75
2022/06/06 01:59:02;;;;;;;21.40;10.93;;;;;;;;;;5100182;28;20390;-76
2022/06/06 02:01:28;;;;;;;18.85;9.95;;;;;;;;;;5102586;27;20106;-75
2022/06/06 02:03:53;;;;;;;18.05;9.77;;;;;;;;;;5100564;27;20032;-76
2022/06/06 02:06:19;;;;;;;17.13;9.63;;;;;;;;;;5101922;28;20023;-75
2022/06/06 02:08:45;;;;;;;19.40;9.52;;;;;;;;;;5098432;28;20046;-73
2022/06/06 02:11:11;;;;;;;17.63;9.35;;;;;;;;;;5099587;27;20020;-75
2022/06/06 02:13:37;;;;;;;16.38;9.15;;;;;;;;;;5102381;27;20043;-76
2022/06/06 02:16:03;;;;;;;17.77;8.73;;;;;;;;;;5105800;28;20039;-73
2022/06/06 02:18:29;;;;;;;14.52;7.93;;;;;;;;;;5098175;28;20027;-76
2022/06/06 02:20:54;;;;;;;16.52;8.30;;;;;;;;;;5101729;28;20031;-75
2022/06/06 02:23:20;;;;;;;14.95;8.20;;;;;;;;;;5100800;28;21264;-76
2022/06/06 02:25:45;;;;;;;15.13;7.55;;;;;;;;;;5102325;28;20019;-75
2022/06/06 02:28:11;;;;;;;13.75;7.85;;;;;;;;;;5094710;28;20110;-73
2022/06/06 02:30:38;;;;;;;13.60;7.25;;;;;;;;;;5103614;28;20081;-76
2022/06/06 02:33:04;;;;;;;11.65;6.65;;;;;;;;;;5098480;27;20027;-76
2022/06/06 02:35:32;;;;;;;13.00;6.95;;;;;;;;;;5100838;28;20043;-73
2022/06/06 02:37:58;;;;;;;14.30;7.10;;;;;;;;;;5095078;27;20031;-76
2022/06/06 02:40:26;;;;;;;11.02;6.38;;;;;;;;;;5099377;28;20038;-76
2022/06/06 02:42:52;;;;;;;11.55;6.82;;;;;;;;;;5101607;28;20058;-76
2022/06/06 02:45:18;;;;;;;10.90;6.43;;;;;;;;;;5096315;28;20067;-76
2022/06/06 02:47:46;;;;;;;9.60;5.50;;;;;;;;;;5102728;28;20513;-75
2022/06/06 02:50:13;;;;;;;10.55;5.60;;;;;;;;;;5099654;28;20062;-76
2022/06/06 02:52:39;;;;;;;12.32;5.80;;;;;;;;;;5101101;28;20507;-74
2022/06/06 02:55:06;;;;;;;10.40;5.70;;;;;;;;;;5101058;28;20028;-73
2022/06/06 02:57:37;;;;;;;10.75;5.68;;;;;;;;;;5096790;28;20044;-73
2022/06/06 03:00:06;;;;;;;11.73;5.30;;;;;;;;;;5098704;28;20320;-76
2022/06/06 03:02:33;;;;;;;7.63;4.95;;;;;;;;;;5100075;28;20108;-73
2022/06/06 03:04:58;;;;;;;8.63;5.13;;;;;;;;;;5099324;28;20543;-73
2022/06/06 03:07:43;;;;;;;10.00;4.88;;;;;;;;;;5097793;28;20053;-75
2022/06/06 03:10:23;;;;;;;9.10;4.70;;;;;;;;;;5095321;28;20028;-76
2022/06/06 03:13:06;;;;;;;8.20;4.53;;;;;;;;;;5106213;28;20032;-74
2022/06/06 03:22:13;;;;;;;15.55;9.07;;;;;;;;;;5098963;28;20061;-76
2022/06/06 03:25:03;;;;;;;30.42;14.43;;;;;;;;;;5093637;28;20024;-74
2022/06/06 03:27:49;;;;;;;28.70;16.00;;;;;;;;;;5090686;28;20468;-75
2022/06/06 03:30:21;;;;;;;28.95;15.07;;;;;;;;;;5096644;28;20368;-75
2022/06/06 03:33:20;;;;;;;32.70;17.37;;;;;;;;;;5100411;28;20023;-75
2022/06/06 03:36:19;;;;;;;34.45;17.02;;;;;;;;;;5097499;28;20054;-74
2022/06/06 03:39:07;;;;;;;36.05;18.13;;;;;;;;;;5100533;28;20032;-76
2022/06/06 03:41:44;;;;;;;36.65;17.77;;;;;;;;;;5116231;27;20394;-76
2022/06/06 03:44:28;;;;;;;36.72;17.77;;;;;;;;;;5095995;27;20071;-75
2022/06/06 03:47:07;;;;;;;36.20;17.75;;;;;;;;;;5102161;27;20031;-74
2022/06/06 03:50:00;;;;;;;35.33;17.92;;;;;;;;;;5104495;27;20047;-75
2022/06/06 03:52:33;;;;;;;32.30;16.80;;;;;;;;;;5104874;28;20030;-73
2022/06/06 03:55:25;;;;;;;31.52;16.17;;;;;;;;;;5100810;27;20149;-72
2022/06/06 03:57:54;;;;;;;34.30;16.95;;;;;;;;;;5094204;27;20031;-75
2022/06/06 04:00:21;;;;;;;33.65;16.80;;;;;;;;;;5116015;27;20475;-76
2022/06/06 04:02:48;;;;;;;30.65;15.45;;;;;;;;;;5101854;27;20058;-76
2022/06/06 04:05:16;;;;;;;33.70;17.60;;;;;;;;;;5100306;27;20044;-73
2022/06/06 04:07:42;;;;;;;33.63;17.17;;;;;;;;;;5100807;28;20073;-73
2022/06/06 04:10:09;;;;;;;30.27;15.95;;;;;;;;;;5099409;27;20023;-76
2022/06/06 04:13:12;;;;;;;30.83;15.63;;;;;;;;;;5104754;28;20023;-75
2022/06/06 04:16:13;;;;;;;29.98;15.77;;;;;;;;;;5102112;27;20024;-75
2022/06/06 04:18:47;;;;;;;32.83;15.73;;;;;;;;;;5073133;27;20046;-73
2022/06/06 04:21:53;;;;;;;28.88;16.50;;;;;;;;;;5102538;27;20059;-73
2022/06/06 04:24:33;;;;;;;32.90;16.55;;;;;;;;;;5097485;27;20044;-74
2022/06/06 04:27:07;;;;;;;31.17;16.65;;;;;;;;;;5100427;28;20483;-74
2022/06/06 04:30:16;;;;;;;27.70;16.17;;;;;;;;;;5101906;27;20027;-76
2022/06/06 04:33:04;;;;;;;30.67;16.30;;;;;;;;;;5063178;28;20044;-76
2022/06/06 04:36:06;;;;;;;26.85;15.73;;;;;;;;;;5059870;28;20052;-74
2022/06/06 04:38:50;;;;;;;30.48;14.77;;;;;;;;;;5055342;28;20044;-76
2022/06/06 04:41:24;;;;;;;28.42;16.35;;;;;;;;;;5104414;28;20031;-75
2022/06/06 04:43:59;;;;;;;24.13;14.20;;;;;;;;;;5093938;27;20035;-74
2022/06/06 04:46:48;;;;;;;26.75;14.73;;;;;;;;;;5093831;28;20471;-76
2022/06/06 04:49:14;;;;;;;23.85;14.07;;;;;;;;;;5097362;27;20031;-74
2022/06/06 04:51:42;;;;;;;24.73;14.50;;;;;;;;;;5097431;27;20039;-75
2022/06/06 04:54:13;;;;;;;26.55;14.63;;;;;;;;;;5096047;28;20027;-76
2022/06/06 04:56:39;;;;;;;23.77;13.80;;;;;;;;;;5098218;28;20502;-74
2022/06/06 04:59:09;;;;;;;25.70;14.40;;;;;;;;;;5096871;28;20055;-75
2022/06/06 05:01:35;;;;;;;26.00;14.18;;;;;;;;;;5091619;27;20032;-73
2022/06/06 05:04:01;;;;;;;24.83;14.15;;;;;;;;;;5093691;28;20048;-74
2022/06/06 05:06:40;;;;;;;24.60;14.18;;;;;;;;;;5096454;27;20047;-75
2022/06/06 05:09:17;;;;;;;23.60;14.65;;;;;;;;;;5094784;27;20114;-75
2022/06/06 05:12:01;;;;;;;24.90;14.55;;;;;;;;;;5095583;28;20036;-76
2022/06/06 05:14:38;;;;;;;23.17;13.98;;;;;;;;;;5095529;27;20024;-73
2022/06/06 05:17:19;;;;;;;22.13;14.13;;;;;;;;;;5101209;28;20028;-73
2022/06/06 05:20:04;;;;;;;21.90;13.27;;;;;;;;;;5102806;28;20035;-74
2022/06/06 05:22:48;;;;;;;20.17;12.50;;;;;;;;;;5099829;28;20039;-73
2022/06/06 05:25:36;;;;;;;18.30;12.02;;;;;;;;;;5103260;27;20063;-75
2022/06/06 05:28:41;;;;;;;19.20;12.23;;;;;;;;;;5097598;28;20031;-76
2022/06/06 05:31:31;;;;;;;21.08;11.63;;;;;;;;;;5078341;28;20047;-76
2022/06/06 05:34:04;;;;;;;19.52;11.60;;;;;;;;;;5096899;28;20372;-75
2022/06/06 05:37:03;;;;;;;17.48;10.88;;;;;;;;;;5101117;28;20127;-73
2022/06/06 05:39:55;;;;;;;17.77;11.52;;;;;;;;;;5097558;27;20039;-75
2022/06/06 05:42:38;;;;;;;16.65;11.00;;;;;;;;;;5101894;28;20664;-75
2022/06/06 05:45:19;;;;;;;16.63;10.88;;;;;;;;;;5093756;28;20491;-75
2022/06/06 05:48:14;;;;;;;16.15;10.93;;;;;;;;;;5101748;27;20361;-76
2022/06/06 05:51:07;;;;;;;15.13;10.38;;;;;;;;;;5100588;27;20066;-75
2022/06/06 05:53:50;;;;;;;12.85;9.13;;;;;;;;;;5101734;27;20096;-75
2022/06/06 05:56:48;;;;;;;14.40;9.18;;;;;;;;;;5105819;28;20081;-76
2022/06/06 05:59:35;;;;;;;15.70;10.43;;;;;;;;;;5085113;27;20036;-76
2022/06/06 06:02:32;;;;;;;13.27;9.38;;;;;;;;;;5101387;27;20111;-73
2022/06/06 06:05:03;;;;;;;16.30;10.70;;;;;;;;;;5104392;28;20032;-74
2022/06/06 06:07:48;;;;;;;15.02;10.82;;;;;;;;;;5102574;27;20024;-76
2022/06/06 06:10:25;;;;;;;15.73;10.13;;;;;;;;;;5101656;28;20028;-73
2022/06/06 06:13:17;;;;;;;15.77;10.52;;;;;;;;;;5107367;28;20036;-75
2022/06/06 06:15:44;;;;;;;13.15;9.40;;;;;;;;;;5102403;27;20016;-73
2022/06/06 06:18:22;;;;;;;13.57;9.18;;;;;;;;;;5101977;27;20031;-75
2022/06/06 06:20:53;;;;;;;13.65;9.77;;;;;;;;;;5101032;28;20648;-73
2022/06/06 06:23:24;;;;;;;13.55;9.23;;;;;;;;;;5103392;28;20024;-73
2022/06/06 06:25:50;;;;;;;13.02;9.13;;;;;;;;;;5102137;28;20023;-75
2022/06/06 06:28:16;;;;;;;13.57;8.93;;;;;;;;;;5101521;28;20479;-75
2022/06/06 06:30:55;;;;;;;11.88;8.93;;;;;;;;;;5104373;28;20103;-74
2022/06/06 06:33:47;;;;;;;11.50;8.55;;;;;;;;;;5098723;28;20031;-75
2022/06/06 06:36:21;;;;;;;11.95;8.60;;;;;;;;;;5082558;28;20040;-76
2022/06/06 06:38:59;;;;;;;11.25;8.40;;;;;;;;;;5078513;28;20031;-75
2022/06/06 06:41:40;;;;;;;12.23;8.15;;;;;;;;;;5082916;28;20081;-75
2022/06/06 06:44:24;;;;;;;10.80;6.80;;;;;;;;;;5084014;28;20537;-76
2022/06/06 06:46:58;;;;;;;9.57;7.25;;;;;;;;;;5082126;28;20028;-74
2022/06/06 06:49:36;;;;;;;9.40;7.00;;;;;;;;;;5079664;28;20055;-75
2022/06/06 06:52:16;;;;;;;8.40;6.40;;;;;;;;;;5072566;28;20057;-73
2022/06/06 06:55:15;;;;;;;8.98;5.85;;;;;;;;;;5088643;28;20043;-75
2022/06/06 06:58:17;;;;;;;8.52;5.60;;;;;;;;;;5083642;28;20032;-75
2022/06/06 07:00:52;;;;;;;8.27;5.10;;;;;;;;;;5080920;28;20063;-73
2022/06/06 07:10:07;;;;;;;7.20;4.35;;;;;;;;;;5084242;28;20450;-76
2022/06/06 07:12:59;;;;;;;8.13;4.05;;;;;;;;;;5083116;28;20028;-75
2022/06/06 07:15:46;;;;;;;8.07;4.50;;;;;;;;;;5085628;28;20463;-74
2022/06/06 07:18:15;;;;;;;5.03;4.15;;;;;;;;;;5086380;28;20154;-75
2022/06/06 07:20:44;;;;;;;5.45;4.25;;;;;;;;;;5084623;28;20035;-76
2022/06/06 07:23:11;;;;;;;6.30;4.22;;;;;;;;;;5090201;28;20028;-76
2022/06/06 07:25:43;;;;;;;8.13;5.13;;;;;;;;;;5092248;28;20491;-74
2022/06/06 07:28:12;;;;;;;6.78;5.18;;;;;;;;;;5093101;28;20111;-76
2022/06/06 07:30:43;;;;;;;6.75;4.85;;;;;;;;;;5087721;28;20056;-75
2022/06/06 07:33:33;;;;;;;7.32;4.95;;;;;;;;;;5086823;28;20020;-75
2022/06/06 07:36:13;;;;;;;7.07;4.68;;;;;;;;;;5100560;27;20512;-73
2022/06/06 07:39:00;;;;;;;6.90;4.85;;;;;;;;;;5103534;27;20062;-73
2022/06/06 07:41:48;;;;;;;7.18;5.07;;;;;;;;;;5106648;28;20033;-73
2022/06/06 07:44:17;;;;;;;6.88;5.30;;;;;;;;;;5106779;28;20032;-73
2022/06/06 07:46:59;;;;;;;6.50;4.90;;;;;;;;;;5104042;27;20384;-75
2022/06/06 07:49:50;;;;;;;6.45;4.82;;;;;;;;;;5106951;28;20027;-76
2022/06/06 07:52:47;;;;;;;6.50;4.78;;;;;;;;;;5111806;27;20114;-72
2022/06/06 07:55:15;;;;;;;8.68;4.53;;;;;;;;;;5101857;28;20121;-76
2022/06/06 07:57:56;;;;;;;4.63;3.95;;;;;;;;;;5102990;27;20024;-75
2022/06/06 08:00:25;;;;;;;5.47;3.45;;;;;;;;;;5105344;28;20066;-76
2022/06/06 08:02:54;;;;;;;5.13;3.13;;;;;;;;;;5109052;28;20031;-72
2022/06/06 08:05:41;;;;;;;3.92;2.83;;;;;;;;;;5103055;28;20032;-76
2022/06/06 08:08:28;;;;;;;4.47;3.13;;;;;;;;;;5109770;27;20027;-76
2022/06/06 08:10:58;;;;;;;4.95;3.10;;;;;;;;;;5044085;27;20047;-75
2022/06/06 08:13:30;;;;;;;4.78;3.00;;;;;;;;;;5105388;28;20024;-73
2022/06/06 08:16:39;;;;;;;6.50;3.08;;;;;;;;;;5120180;27;20015;-76
2022/06/06 08:19:33;;;;;;;4.57;2.78;;;;;;;;;;5113662;28;20035;-74
2022/06/06 08:21:59;;;;;;;4.03;2.78;;;;;;;;;;5106937;27;20054;-74
2022/06/06 08:24:38;;;;;;;4.32;3.00;;;;;;;;;;5100856;27;20024;-76
2022/06/06 08:27:07;;;;;;;4.97;2.85;;;;;;;;;;5111124;28;20035;-76
2022/06/06 08:29:35;;;;;;;5.57;3.50;;;;;;;;;;5108021;28;20035;-76
2022/06/06 08:32:01;;;;;;;4.25;3.00;;;;;;;;;;5111456;28;20028;-74
2022/06/06 08:34:27;;;;;;;4.40;3.47;;;;;;;;;;5103643;27;20526;-76
2022/06/06 08:37:11;;;;;;;5.80;3.65;;;;;;;;;;5110841;27;20031;-75
2022/06/06 08:40:08;;;;;;;5.95;3.40;;;;;;;;;;5096100;28;20356;-76
2022/06/06 08:42:53;;;;;;;5.32;3.60;;;;;;;;;;5093996;28;20515;-75
2022/06/06 08:45:39;;;;;;;4.18;3.42;;;;;;;;;;5095325;27;20460;-76
2022/06/06 08:48:26;;;;;;;6.30;3.78;;;;;;;;;;5097956;27;20552;-76
2022/06/06 08:51:11;;;;;;;5.97;4.22;;;;;;;;;;5097639;28;20055;-73
2022/06/06 08:53:56;;;;;;;4.63;3.75;;;;;;;;;;5099291;27;20021;-76
2022/06/06 08:56:56;;;;;;;6.05;3.80;;;;;;;;;;5103582;28;20031;-75
2022/06/06 08:59:45;;;;;;;6.00;3.88;;;;;;;;;;5102203;28;20028;-76
2022/06/06 09:02:32;;;;;;;5.28;4.00;;;;;;;;;;5103765;28;20118;-74
2022/06/06 09:05:26;;;;;;;5.70;5.03;;;;;;;;;;5102957;28;20042;-75
2022/06/06 09:08:10;;;;;;;5.05;4.55;;;;;;;;;;5101467;28;20028;-74
2022/06/06 09:10:47;;;;;;;5.13;3.83;;;;;;;;;;5099679;28;20020;-74
2022/06/06 09:13:46;;;;;;;6.18;4.60;;;;;;;;;;5095559;27;20063;-74
2022/06/06 09:16:30;;;;;;;4.55;3.40;;;;;;;;;;5104323;27;20023;-75
2022/06/06 09:19:22;;;;;;;4.13;3.00;;;;;;;;;;5099409;28;20645;-74
2022/06/06 09:21:59;;;;;;;6.55;3.65;;;;;;;;;;5098806;28;20027;-74
2022/06/06 09:24:54;;;;;;;3.97;3.17;;;;;;;;;;5100033;28;20032;-74
2022/06/06 09:27:54;;;;;;;4.15;3.20;;;;;;;;;;5096225;28;20430;-72
2022/06/06 09:30:27;;;;;;;4.43;3.20;;;;;;;;;;5096213;27;20028;-74
2022/06/06 09:33:26;;;;;;;4.15;3.00;;;;;;;;;;5099551;28;20036;-75
2022/06/06 09:36:56;;;;;;;3.65;3.00;;;;;;;;;;5098656;28;20071;-74
2022/06/06 09:39:24;;;;;;;3.83;3.08;;;;;;;;;;5035799;28;20071;-73
2022/06/06 09:42:15;;;;;;;5.70;3.65;;;;;;;;;;5086194;28;20092;-72
2022/06/06 09:45:24;;;;;;;4.90;3.28;;;;;;;;;;5100496;27;20023;-72
2022/06/06 09:47:50;;;;;;;4.30;3.10;;;;;;;;;;5101865;28;20066;-75
2022/06/06 09:50:33;;;;;;;5.13;3.22;;;;;;;;;;5102410;28;20055;-74
2022/06/06 09:53:17;;;;;;;;;;;;;;;;;;5098756;28;20023;-79
2022/06/06 09:59:13;;;;;;;4.75;3.10;;;;;;;;;;5095552;28;21296;-74
2022/06/06 10:01:47;;;;;;;4.85;3.20;;;;;;;;;;5095048;27;20028;-75
2022/06/06 10:04:34;;;;;;;5.90;3.20;;;;;;;;;;5100076;28;20058;-74
2022/06/06 10:07:29;;;;;;;4.35;3.30;;;;;;;;;;5100313;28;20027;-75
2022/06/06 10:10:28;;;;;;;5.80;3.30;;;;;;;;;;5109061;27;20027;-75
2022/06/06 10:13:30;;;;;;;5.18;3.53;;;;;;;;;;5102877;28;20102;-75
2022/06/06 10:16:20;;;;;;;5.07;3.40;;;;;;;;;;5098410;28;20795;-73
2022/06/06 10:19:20;;;;;;;6.75;3.20;;;;;;;;;;5089685;27;20055;-74
2022/06/06 10:22:05;;;;;;;8.57;3.58;;;;;;;;;;5098181;28;20050;-76
2022/06/06 10:24:56;;;;;;;6.55;3.63;;;;;;;;;;5097829;28;20054;-75
2022/06/06 10:27:41;;;;;;;5.32;4.30;;;;;;;;;;5085695;28;20023;-74
2022/06/06 10:30:30;;;;;;;4.53;3.67;;;;;;;;;;5092393;28;20028;-75
2022/06/06 10:33:19;;;;;;;5.15;3.95;;;;;;;;;;5095617;28;22120;-75
2022/06/06 10:36:06;;;;;;;5.00;4.20;;;;;;;;;;5092876;27;20081;-76
2022/06/06 10:38:31;;;;;;;4.47;3.92;;;;;;;;;;5094595;28;20147;-75
2022/06/06 10:41:15;;;;;;;5.93;5.32;;;;;;;;;;5092572;28;20043;-75
2022/06/06 10:43:59;;;;;;;7.03;4.53;;;;;;;;;;5090943;27;20027;-74
2022/06/06 10:46:36;;;;;;;7.10;4.90;;;;;;;;;;5105372;28;20027;-75
2022/06/06 10:49:06;;;;;;;6.13;4.88;;;;;;;;;;5096637;27;20479;-75
2022/06/06 10:51:49;;;;;;;6.93;5.30;;;;;;;;;;5100573;27;20088;-75
2022/06/06 10:54:42;;;;;;;6.15;5.38;;;;;;;;;;5100801;27;20034;-76
2022/06/06 10:57:36;;;;;;;6.25;4.57;;;;;;;;;;5104600;27;20054;-75
2022/06/06 11:00:19;;;;;;;5.63;4.88;;;;;;;;;;5102605;27;20481;-76
2022/06/06 11:02:50;;;;;;;7.37;4.03;;;;;;;;;;5102062;27;20040;-75
2022/06/06 11:05:48;;;;;;;4.50;3.60;;;;;;;;;;5099312;27;20077;-74
2022/06/06 11:08:35;;;;;;;4.60;3.50;;;;;;;;;;5073498;27;20044;-74
2022/06/06 11:11:33;;;;;;;6.53;3.50;;;;;;;;;;5100180;27;20044;-75
2022/06/06 11:14:18;;;;;;;4.40;3.00;;;;;;;;;;5102035;27;20027;-74
2022/06/06 11:16:59;;;;;;;3.83;2.92;;;;;;;;;;5102751;27;20783;-75
2022/06/06 11:19:34;;;;;;;3.17;2.63;;;;;;;;;;5098482;27;20538;-75
2022/06/06 11:22:21;;;;;;;4.40;2.22;;;;;;;;;;5106197;27;20031;-76
2022/06/06 11:25:01;;;;;;;3.70;2.30;;;;;;;;;;5116324;27;20019;-75
2022/06/06 11:27:47;;;;;;;3.03;2.33;;;;;;;;;;5105432;28;20483;-75
2022/06/06 11:30:46;;;;;;;3.40;2.45;;;;;;;;;;5101413;27;20048;-74
2022/06/06 11:33:42;;;;;;;5.32;2.70;;;;;;;;;;5099788;28;20023;-76
2022/06/06 11:36:45;;;;;;;4.13;2.60;;;;;;;;;;5104785;27;20558;-76
2022/06/06 11:39:39;;;;;;;4.50;2.80;;;;;;;;;;5098259;27;20118;-75
2022/06/06 11:42:38;;;;;;;4.70;2.53;;;;;;;;;;5097313;27;20042;-76
2022/06/06 11:45:41;;;;;;;3.33;2.40;;;;;;;;;;5096103;27;20023;-75
2022/06/06 11:48:43;;;;;;;3.22;2.15;;;;;;;;;;5098171;27;20038;-76
2022/06/06 11:51:46;;;;;;;4.23;2.30;;;;;;;;;;5096545;27;20024;-76
2022/06/06 11:54:39;;;;;;;5.85;2.50;;;;;;;;;;5102156;27;20078;-74
2022/06/06 11:57:15;;;;;;;3.33;2.20;;;;;;;;;;5094385;28;20027;-76
2022/06/06 12:00:07;;;;;;;3.55;2.38;;;;;;;;;;5098710;27;20072;-75
2022/06/06 12:03:02;;;;;;;3.88;2.38;;;;;;;;;;5069337;28;20383;-76
2022/06/06 12:05:31;;;;;;;3.67;2.50;;;;;;;;;;5084593;27;20044;-76
2022/06/06 12:08:52;;;;;;;3.00;2.40;;;;;;;;;;5099279;28;20066;-75
2022/06/06 12:11:46;;;;;;;3.78;2.17;;;;;;;;;;5080237;27;20040;-75
2022/06/06 12:14:51;;;;;;;3.88;2.53;;;;;;;;;;5097768;28;20035;-74
2022/06/06 12:17:41;;;;;;;5.40;2.00;;;;;;;;;;5094766;28;20058;-73
2022/06/06 12:20:26;;;;;;;2.40;1.65;;;;;;;;;;5095365;27;20066;-74
2022/06/06 12:22:59;;;;;;;2.53;1.58;;;;;;;;;;5101235;28;20036;-76
2022/06/06 12:25:44;;;;;;;6.13;2.20;;;;;;;;;;5089471;28;20471;-75
2022/06/06 12:28:37;;;;;;;3.20;2.25;;;;;;;;;;5099300;28;20027;-74
2022/06/06 12:31:05;;;;;;;3.30;2.05;;;;;;;;;;5096686;27;20031;-74
2022/06/06 12:33:44;;;;;;;4.47;2.10;;;;;;;;;;5098447;28;20683;-75
2022/06/06 12:36:32;;;;;;;4.63;2.00;;;;;;;;;;5089303;27;20035;-75
2022/06/06 12:39:19;;;;;;;2.42;1.70;;;;;;;;;;5094820;28;20054;-75
2022/06/06 12:41:58;;;;;;;3.22;1.75;;;;;;;;;;5096302;28;20550;-75
2022/06/06 12:44:48;;;;;;;3.58;1.70;;;;;;;;;;5097199;28;20042;-76
2022/06/06 12:47:25;;;;;;;3.03;1.80;;;;;;;;;;5096206;28;20047;-75
2022/06/06 12:50:26;;;;;;;2.67;1.48;;;;;;;;;;5090299;28;20046;-75
2022/06/06 12:53:13;;;;;;;2.90;1.80;;;;;;;;;;5063261;28;20044;-76
2022/06/06 12:58:46;;;;;;;3.72;1.75;;;;;;;;;;5097926;27;20124;-75
2022/06/06 13:01:40;;;;;;;2.53;1.85;;;;;;;;;;5091796;27;20110;-76
2022/06/06 13:04:05;;;;;;;;;;;;;;;;;;5097651;27;20442;-76
2022/06/06 13:06:55;;;;;;;3.70;1.83;;;;;;;;;;5089162;28;19924;-75
2022/06/06 13:09:42;;;;;;;2.42;1.73;;;;;;;;;;5091825;28;20276;-75
2022/06/06 13:12:11;;;;;;;2.65;1.70;;;;;;;;;;5097835;28;20032;-76
2022/06/06 13:15:08;;;;;;;3.10;1.90;;;;;;;;;;5098377;27;20478;-74
2022/06/06 13:17:49;;;;;;;5.60;1.90;;;;;;;;;;5097886;27;20057;-74
2022/06/06 13:20:35;;;;;;;2.63;1.80;;;;;;;;;;5096444;27;20094;-76
2022/06/06 13:23:10;;;;;;;3.33;1.88;;;;;;;;;;5088583;28;20653;-75
2022/06/06 13:25:41;;;;;;;3.13;1.90;;;;;;;;;;5090729;27;20035;-74
2022/06/06 13:28:20;;;;;;;5.75;2.22;;;;;;;;;;5091978;27;20851;-74
2022/06/06 13:30:49;;;;;;;3.72;1.95;;;;;;;;;;5091085;28;20070;-76
2022/06/06 13:33:25;;;;;;;3.50;2.00;;;;;;;;;;5086968;28;20042;-74
2022/06/06 13:36:10;;;;;;;3.85;2.10;;;;;;;;;;5092182;28;20140;-76
2022/06/06 13:39:10;;;;;;;4.75;2.50;;;;;;;;;;5088620;28;20032;-73
2022/06/06 13:41:50;;;;;;;4.35;2.40;;;;;;;;;;5091335;28;20073;-75
2022/06/06 13:44:52;;;;;;;4.22;2.28;;;;;;;;;;5088344;27;20035;-76
2022/06/06 13:47:48;;;;;;;4.20;2.67;;;;;;;;;;5057344;28;20067;-76
2022/06/06 13:50:31;;;;;;;3.22;2.55;;;;;;;;;;5094046;28;20138;-75
2022/06/06 13:53:09;;;;;;;4.47;2.22;;;;;;;;;;5086700;28;20032;-75
2022/06/06 13:55:37;;;;;;;3.58;2.20;;;;;;;;;;5108217;27;20551;-76
2022/06/06 13:58:24;;;;;;;4.47;2.03;;;;;;;;;;5094526;28;20141;-73
2022/06/06 14:01:29;;;;;;;3.53;1.95;;;;;;;;;;5099798;27;20029;-76
2022/06/06 14:04:13;;;;;;;3.90;1.98;;;;;;;;;;5090083;28;20035;-75
2022/06/06 14:06:56;;;;;;;3.83;2.10;;;;;;;;;;5094429;28;20391;-76
2022/06/06 14:09:39;;;;;;;3.08;1.90;;;;;;;;;;5094969;28;20034;-75
2022/06/06 14:12:08;;;;;;;2.95;1.95;;;;;;;;;;5083468;28;20032;-76
2022/06/06 14:14:35;;;;;;;2.88;1.88;;;;;;;;;;5086444;28;20023;-75
2022/06/06 14:17:04;;;;;;;2.83;1.90;;;;;;;;;;5090204;28;20028;-76
2022/06/06 14:19:51;;;;;;;2.80;1.95;;;;;;;;;;5089687;28;20027;-75
2022/06/06 14:22:35;;;;;;;3.58;1.95;;;;;;;;;;5090232;28;20529;-76
2022/06/06 14:25:02;;;;;;;4.20;2.20;;;;;;;;;;5090391;28;20112;-76
2022/06/06 14:27:30;;;;;;;4.30;2.55;;;;;;;;;;5089548;27;20038;-74
2022/06/06 14:29:59;;;;;;;3.40;2.50;;;;;;;;;;5093278;28;20571;-75
2022/06/06 14:32:30;;;;;;;3.30;2.40;;;;;;;;;;5090055;28;20032;-75
2022/06/06 14:35:22;;;;;;;4.57;3.42;;;;;;;;;;5091170;28;20047;-74
2022/06/06 14:37:48;;;;;;;5.80;3.40;;;;;;;;;;5090967;28;20019;-75
2022/06/06 14:40:34;;;;;;;5.72;3.33;;;;;;;;;;5093953;28;20300;-74
2022/06/06 14:43:00;;;;;;;4.55;3.72;;;;;;;;;;5094955;28;20854;-74
2022/06/06 14:45:29;;;;;;;3.85;3.15;;;;;;;;;;5094197;28;20019;-74
2022/06/06 14:47:57;;;;;;;4.10;3.15;;;;;;;;;;5086231;28;20198;-75
2022/06/06 14:53:25;;;;;;;4.85;3.20;;;;;;;;;;5088382;28;20099;-75
2022/06/06 14:55:55;;;;;;;4.25;3.03;;;;;;;;;;5088287;28;20382;-75
2022/06/06 14:58:24;;;;;;;6.45;3.42;;;;;;;;;;5090612;28;20028;-75
2022/06/06 15:00:54;;;;;;;5.80;3.20;;;;;;;;;;5091845;28;20024;-76
2022/06/06 15:03:31;;;;;;;5.03;3.40;;;;;;;;;;5089358;28;20787;-74
2022/06/06 15:06:08;;;;;;;5.00;3.10;;;;;;;;;;5088919;28;20036;-75
2022/06/06 15:08:59;;;;;;;6.18;3.55;;;;;;;;;;5088800;28;20879;-74
2022/06/06 15:11:28;;;;;;;5.20;2.95;;;;;;;;;;5074155;28;20043;-73
2022/06/06 15:14:00;;;;;;;4.85;3.03;;;;;;;;;;5089091;28;20036;-75
2022/06/06 15:16:32;;;;;;;4.70;3.25;;;;;;;;;;5086197;28;20030;-75
2022/06/06 15:19:00;;;;;;;5.97;3.08;;;;;;;;;;5090947;28;20537;-76
2022/06/06 15:21:29;;;;;;;3.90;3.05;;;;;;;;;;5087901;28;20034;-75
2022/06/06 15:24:03;;;;;;;4.05;3.20;;;;;;;;;;5093383;28;20059;-75
2022/06/06 15:26:43;;;;;;;6.65;3.70;;;;;;;;;;5089168;28;20024;-74
2022/06/06 15:29:23;;;;;;;5.97;3.70;;;;;;;;;;5085544;28;20024;-75
2022/06/06 15:32:14;;;;;;;5.47;3.63;;;;;;;;;;5086238;28;20395;-76
2022/06/06 15:35:21;;;;;;;6.13;3.90;;;;;;;;;;5092303;28;20411;-75
2022/06/06 15:38:06;;;;;;;5.72;4.32;;;;;;;;;;5082981;28;20075;-75
2022/06/06 15:40:41;;;;;;;5.75;3.72;;;;;;;;;;5102593;28;20093;-75
2022/06/06 15:43:24;;;;;;;6.32;3.65;;;;;;;;;;5104324;28;20027;-74
2022/06/06 15:45:55;;;;;;;6.28;3.90;;;;;;;;;;5097828;28;20035;-75
2022/06/06 15:48:48;;;;;;;4.55;3.45;;;;;;;;;;5099699;28;20035;-75
2022/06/06 15:51:36;;;;;;;3.65;2.05;;;;;;;;;;5103177;28;20068;-76
2022/06/06 15:54:17;;;;;;;2.33;1.50;;;;;;;;;;5102858;28;20028;-73
2022/06/06 15:56:52;;;;;;;2.10;1.20;;;;;;;;;;5101591;28;20062;-73
2022/06/06 15:59:26;;;;;;;1.20;0.85;;;;;;;;;;5095272;27;20034;-73
2022/06/06 16:02:29;;;;;;;1.15;0.70;;;;;;;;;;5100806;28;20588;-74
2022/06/06 16:05:24;;;;;;;1.65;0.80;;;;;;;;;;5100513;27;20096;-73
2022/06/06 16:08:15;;;;;;;2.28;0.98;;;;;;;;;;5096884;27;20054;-74
2022/06/06 16:10:47;;;;;;;1.17;0.80;;;;;;;;;;5098573;28;20026;-75
2022/06/06 16:13:34;;;;;;;0.82;0.75;;;;;;;;;;5101988;28;20644;-76
2022/06/06 16:16:32;;;;;;;3.13;0.90;;;;;;;;;;5095921;27;20035;-74
2022/06/06 16:19:16;;;;;;;1.55;1.08;;;;;;;;;;5101962;28;20177;-74